Time;durP1;ratioP1;P1;durP2;ratioP2;P2;SDS_P1;SDS_P2;PMS_P1;PMS_P2;Temp;Humidity;BMP_temperature;BMP_pressure;BME280_temperature;BME280_humidity;BME280_pressure;Samples;Min_cycle;Max_cycle;Signal;HPM_P1;HPM_P2
2021/10/19 00:00:33;;;;;;;0.40;0.20;;;;;;;13.61;67.57;101237.00;111791;1192;139736;-78
2021/10/19 00:03:08;;;;;;;0.40;0.20;;;;;;;13.66;67.56;101244.53;111926;1192;96405;-78
2021/10/19 00:05:36;;;;;;;0.40;0.20;;;;;;;13.70;67.21;101246.40;113834;1193;94998;-76
2021/10/19 00:08:04;;;;;;;0.40;0.20;;;;;;;13.71;66.90;101249.77;111588;1193;138136;-76
2021/10/19 00:10:32;;;;;;;0.40;0.30;;;;;;;13.65;67.23;101259.03;111523;1193;110177;-77
2021/10/19 00:13:00;;;;;;;0.40;0.20;;;;;;;13.55;67.43;101254.98;111779;1193;139313;-76
2021/10/19 00:15:27;;;;;;;0.40;0.20;;;;;;;13.52;67.64;101257.37;111595;1193;94929;-76
2021/10/19 00:17:55;;;;;;;0.40;0.20;;;;;;;13.57;67.42;101261.55;111659;1193;108437;-77
2021/10/19 00:20:23;;;;;;;0.40;0.30;;;;;;;13.56;67.49;101260.33;111600;1192;137919;-77
2021/10/19 00:22:51;;;;;;;0.40;0.20;;;;;;;13.64;67.34;101261.91;111734;1193;95326;-77
2021/10/19 00:25:19;;;;;;;0.40;0.20;;;;;;;13.61;67.39;101261.63;111620;1192;138005;-77
2021/10/19 00:27:47;;;;;;;0.40;0.30;;;;;;;13.44;66.78;101263.80;111748;1193;110957;-76
2021/10/19 00:30:15;;;;;;;0.40;0.30;;;;;;;13.19;66.96;101264.73;111608;1193;138815;-77
2021/10/19 00:32:43;;;;;;;0.40;0.30;;;;;;;13.02;66.94;101258.34;111823;1193;94900;-78
2021/10/19 00:35:11;;;;;;;0.40;0.30;;;;;;;12.91;67.41;101260.55;111841;1193;95515;-77
2021/10/19 00:37:39;;;;;;;0.40;0.30;;;;;;;12.64;67.47;101264.87;111597;1192;138423;-77
2021/10/19 00:40:08;;;;;;;0.40;0.30;;;;;;;12.29;68.20;101266.27;111703;1192;107833;-78
2021/10/19 00:42:36;;;;;;;0.40;0.30;;;;;;;12.03;68.84;101266.95;112604;1192;138619;-77
2021/10/19 00:45:06;;;;;;;0.40;0.30;;;;;;;11.95;69.37;101263.17;111751;1193;95823;-77
2021/10/19 00:47:35;;;;;;;0.40;0.30;;;;;;;11.84;69.67;101263.70;111603;1193;107594;-77
2021/10/19 00:50:03;;;;;;;0.40;0.30;;;;;;;11.85;70.05;101265.80;111651;1192;139864;-77
2021/10/19 00:52:31;;;;;;;0.40;0.30;;;;;;;11.87;70.10;101261.67;111640;1193;95704;-76
2021/10/19 00:55:03;;;;;;;0.40;0.30;;;;;;;11.84;69.67;101263.16;111888;1193;137725;-78
2021/10/19 00:57:31;;;;;;;0.40;0.30;;;;;;;11.73;69.97;101265.31;111970;1193;108808;-78
2021/10/19 00:59:59;;;;;;;0.50;0.40;;;;;;;11.51;69.86;101265.33;111835;1194;108506;-77
2021/10/19 01:02:27;;;;;;;0.40;0.30;;;;;;;11.18;70.23;101269.39;111775;1195;138491;-79
2021/10/19 01:04:55;;;;;;;0.40;0.30;;;;;;;10.93;70.99;101270.46;112367;1192;95003;-77
2021/10/19 01:07:23;;;;;;;0.40;0.30;;;;;;;10.87;71.56;101269.83;111747;1195;138784;-77
2021/10/19 01:09:51;;;;;;;0.40;0.30;;;;;;;10.85;71.69;101269.50;112070;1193;108917;-78
2021/10/19 01:12:19;;;;;;;0.40;0.40;;;;;;;10.79;71.82;101270.10;112064;1193;139682;-79
2021/10/19 01:14:47;;;;;;;0.40;0.40;;;;;;;10.75;72.16;101269.63;112069;1193;94841;-75
2021/10/19 01:17:15;;;;;;;0.40;0.40;;;;;;;10.78;72.26;101273.50;111862;1193;107524;-77
2021/10/19 01:19:48;;;;;;;0.40;0.30;;;;;;;10.91;72.04;101269.23;111651;1193;138752;-77
2021/10/19 01:22:16;;;;;;;0.40;0.30;;;;;;;11.16;71.80;101264.80;111758;1193;94977;-77
2021/10/19 01:24:44;;;;;;;0.40;0.30;;;;;;;11.38;70.94;101265.52;111905;1192;138595;-77
2021/10/19 01:27:12;;;;;;;0.40;0.30;;;;;;;11.58;70.46;101266.27;111588;1193;107473;-77
2021/10/19 01:29:40;;;;;;;0.40;0.40;;;;;;;11.57;69.52;101265.92;111569;1193;109333;-77
2021/10/19 01:32:08;;;;;;;0.40;0.30;;;;;;;11.42;69.84;101264.22;111668;1193;139203;-77
2021/10/19 01:34:36;;;;;;;0.40;0.40;;;;;;;11.39;69.70;101259.46;111777;1193;94865;-77
2021/10/19 01:37:04;;;;;;;0.40;0.40;;;;;;;11.39;69.88;101255.56;111489;1194;137771;-77
2021/10/19 01:39:32;;;;;;;0.40;0.30;;;;;;;11.35;70.20;101254.91;111969;1193;109132;-77
2021/10/19 01:42:00;;;;;;;0.40;0.30;;;;;;;11.36;70.17;101251.89;111879;1193;95485;-77
2021/10/19 01:44:28;;;;;;;0.40;0.30;;;;;;;11.32;70.18;101246.77;111788;1193;138708;-78
2021/10/19 01:46:56;;;;;;;0.40;0.30;;;;;;;11.34;70.23;101251.55;112097;1192;109360;-78
2021/10/19 01:49:23;;;;;;;0.40;0.40;;;;;;;11.30;70.16;101245.91;112043;1193;138563;-78
2021/10/19 01:51:51;;;;;;;0.40;0.40;;;;;;;11.27;70.23;101238.51;112092;1193;95331;-78
2021/10/19 01:54:19;;;;;;;0.40;0.30;;;;;;;11.28;70.28;101239.90;111702;1193;138929;-77
2021/10/19 01:56:47;;;;;;;0.40;0.30;;;;;;;11.19;70.35;101238.26;111874;1193;107552;-78
2021/10/19 01:59:15;;;;;;;0.40;0.30;;;;;;;11.17;70.84;101234.38;112205;1193;109372;-78
2021/10/19 02:01:42;;;;;;;0.40;0.30;;;;;;;11.25;70.48;101232.15;112178;1193;138351;-77
2021/10/19 02:04:10;;;;;;;0.40;0.30;;;;;;;11.28;70.56;101232.27;112196;1193;94817;-77
2021/10/19 02:06:38;;;;;;;0.40;0.40;;;;;;;11.35;70.57;101233.21;111855;1192;138683;-77
2021/10/19 02:09:06;;;;;;;0.40;0.30;;;;;;;11.31;70.34;101234.89;111958;1193;108487;-77
2021/10/19 02:11:34;;;;;;;0.40;0.30;;;;;;;11.34;70.34;101231.09;111958;1192;95885;-77
2021/10/19 02:14:01;;;;;;;0.40;0.30;;;;;;;11.35;70.14;101234.99;111647;1193;138658;-77
2021/10/19 02:16:29;;;;;;;0.40;0.30;;;;;;;11.36;70.59;101233.73;112306;1192;107708;-78
2021/10/19 02:18:57;;;;;;;0.40;0.30;;;;;;;11.50;70.35;101239.02;111962;1192;138530;-79
2021/10/19 02:21:25;;;;;;;0.40;0.30;;;;;;;11.44;69.82;101241.07;111962;1193;94773;-77
2021/10/19 02:23:53;;;;;;;0.40;0.30;;;;;;;11.24;70.02;101244.41;111876;1192;94898;-77
2021/10/19 02:26:20;;;;;;;0.40;0.30;;;;;;;11.15;70.62;101250.07;111951;1193;138654;-77
2021/10/19 02:28:48;;;;;;;0.40;0.30;;;;;;;11.19;70.70;101249.65;112027;1192;108464;-76
2021/10/19 02:31:16;;;;;;;0.40;0.30;;;;;;;11.18;70.83;101249.83;111822;1192;136477;-77
2021/10/19 02:33:44;;;;;;;0.40;0.30;;;;;;;11.20;70.56;101252.30;111739;1193;95685;-77
2021/10/19 02:36:12;;;;;;;0.40;0.30;;;;;;;11.19;70.73;101256.23;111747;1191;138578;-79
2021/10/19 02:38:40;;;;;;;0.40;0.30;;;;;;;11.22;70.98;101250.13;111744;1193;108248;-79
2021/10/19 02:41:07;;;;;;;0.40;0.30;;;;;;;11.34;70.56;101247.81;112011;1193;95398;-77
2021/10/19 02:43:35;;;;;;;0.40;0.30;;;;;;;11.28;70.15;101254.66;111576;1193;137300;-77
2021/10/19 02:46:03;;;;;;;0.40;0.30;;;;;;;11.23;70.72;101261.30;111858;1192;107639;-77
2021/10/19 02:48:31;;;;;;;0.40;0.30;;;;;;;11.29;70.79;101265.52;111522;1193;138561;-77
2021/10/19 02:50:59;;;;;;;0.40;0.30;;;;;;;11.35;70.68;101264.35;111865;1193;95260;-78
2021/10/19 02:53:26;;;;;;;0.40;0.30;;;;;;;11.34;70.15;101263.98;112072;1192;94885;-77
2021/10/19 02:55:54;;;;;;;0.40;0.30;;;;;;;11.20;70.41;101264.73;111875;1192;138599;-77
2021/10/19 02:58:22;;;;;;;0.40;0.40;;;;;;;11.23;70.76;101266.65;111811;1193;109859;-78
2021/10/19 03:00:50;;;;;;;0.40;0.30;;;;;;;11.30;70.40;101271.33;111657;1193;137596;-77
2021/10/19 03:03:18;;;;;;;0.40;0.30;;;;;;;11.31;70.41;101273.13;111841;1193;95507;-77
2021/10/19 03:05:46;;;;;;;0.40;0.30;;;;;;;11.26;70.40;101273.89;111691;1193;107642;-77
2021/10/19 03:08:13;;;;;;;0.40;0.30;;;;;;;11.19;70.64;101273.64;111429;1192;139500;-79
2021/10/19 03:10:41;;;;;;;0.40;0.30;;;;;;;11.22;70.86;101273.96;111806;1193;94937;-79
2021/10/19 03:13:09;;;;;;;0.40;0.30;;;;;;;11.26;70.66;101275.66;112033;1192;138606;-76
2021/10/19 03:15:37;;;;;;;0.40;0.30;;;;;;;11.18;70.40;101275.77;111971;1192;107513;-77
2021/10/19 03:18:05;;;;;;;0.40;0.30;;;;;;;11.19;71.04;101276.67;111858;1193;108474;-75
2021/10/19 03:20:32;;;;;;;0.40;0.30;;;;;;;11.32;70.46;101273.63;112048;1192;138778;-77
2021/10/19 03:23:00;;;;;;;0.40;0.30;;;;;;;11.30;70.70;101271.87;111698;1191;94918;-77
2021/10/19 03:25:28;;;;;;;0.40;0.30;;;;;;;11.24;70.18;101271.79;111951;1192;137782;-76
2021/10/19 03:27:56;;;;;;;0.40;0.30;;;;;;;11.08;70.52;101268.65;111891;1192;107130;-77
2021/10/19 03:30:24;;;;;;;0.40;0.30;;;;;;;11.04;71.11;101265.50;111788;1193;138496;-78
2021/10/19 03:32:53;;;;;;;0.40;0.30;;;;;;;11.04;70.97;101268.52;112144;1193;95378;-77
2021/10/19 03:35:21;;;;;;;0.40;0.30;;;;;;;10.91;71.09;101269.23;111985;1191;107814;-77
2021/10/19 03:37:48;;;;;;;0.40;0.30;;;;;;;10.81;71.50;101265.46;111976;1193;138092;-76
2021/10/19 03:40:16;;;;;;;0.40;0.30;;;;;;;10.75;71.45;101267.48;112111;1191;94927;-77
2021/10/19 03:42:47;;;;;;;0.40;0.30;;;;;;;10.74;71.71;101266.26;111879;1192;138847;-76
2021/10/19 03:45:16;;;;;;;0.40;0.30;;;;;;;10.73;71.97;101263.95;111697;1193;107503;-77
2021/10/19 03:47:44;;;;;;;0.40;0.30;;;;;;;10.67;71.75;101261.39;111702;1193;108839;-77
2021/10/19 03:50:13;;;;;;;0.40;0.30;;;;;;;10.56;72.03;101259.58;111803;1192;139341;-76
2021/10/19 03:52:41;;;;;;;0.40;0.30;;;;;;;10.58;72.38;101257.42;112032;1192;95168;-78
2021/10/19 03:55:09;;;;;;;0.40;0.30;;;;;;;10.53;71.90;101257.13;111759;1192;138178;-77
2021/10/19 03:57:39;;;;;;;0.40;0.30;;;;;;;10.41;72.17;101255.84;111957;1193;108481;-78
2021/10/19 04:00:08;;;;;;;0.40;0.30;;;;;;;10.28;72.40;101256.31;111991;1192;95114;-80
2021/10/19 04:02:38;;;;;;;0.40;0.40;;;;;;;10.21;72.69;101259.41;111918;1193;138883;-78
2021/10/19 04:05:07;;;;;;;0.40;0.30;;;;;;;10.26;73.12;101258.64;111672;1193;107464;-79
2021/10/19 04:07:35;;;;;;;0.40;0.30;;;;;;;10.32;72.94;101256.27;111631;1193;139305;-77
2021/10/19 04:10:04;;;;;;;0.40;0.30;;;;;;;10.33;72.77;101253.06;111776;1192;95519;-77
2021/10/19 04:12:32;;;;;;;0.40;0.30;;;;;;;10.36;73.10;101251.27;111772;1193;138307;-79
2021/10/19 04:15:00;;;;;;;0.40;0.30;;;;;;;10.38;72.88;101251.80;112083;1192;107560;-78
2021/10/19 04:17:28;;;;;;;0.50;0.30;;;;;;;10.36;72.80;101249.69;111833;1192;108557;-77
2021/10/19 04:19:56;;;;;;;0.40;0.30;;;;;;;10.42;73.05;101248.73;111542;1193;139635;-77
2021/10/19 04:22:24;;;;;;;0.40;0.30;;;;;;;10.44;72.71;101250.48;112125;1192;94802;-76
2021/10/19 04:24:54;;;;;;;0.40;0.40;;;;;;;10.41;72.99;101248.21;111709;1193;138260;-77
2021/10/19 04:27:22;;;;;;;0.40;0.40;;;;;;;10.43;73.00;101247.48;111710;1192;107841;-77
2021/10/19 04:29:50;;;;;;;0.40;0.30;;;;;;;10.41;72.87;101246.98;111700;1193;94848;-78
2021/10/19 04:32:18;;;;;;;0.40;0.30;;;;;;;10.32;72.89;101243.85;111608;1193;137873;-78
2021/10/19 04:34:46;;;;;;;0.40;0.30;;;;;;;10.23;73.41;101248.03;111559;1193;107522;-79
2021/10/19 04:37:14;;;;;;;0.40;0.40;;;;;;;10.26;73.47;101248.70;111844;1193;139555;-78
2021/10/19 04:39:41;;;;;;;0.40;0.30;;;;;;;10.29;73.50;101254.16;111789;1192;95360;-77
2021/10/19 04:42:09;;;;;;;0.40;0.40;;;;;;;10.27;73.29;101256.86;111624;1193;94875;-77
2021/10/19 04:44:37;;;;;;;0.40;0.40;;;;;;;10.27;73.48;101258.80;111620;1193;139285;-76
2021/10/19 04:47:05;;;;;;;0.40;0.40;;;;;;;10.27;73.23;101262.37;112039;1192;109622;-77
2021/10/19 04:49:33;;;;;;;0.40;0.40;;;;;;;10.29;73.36;101263.05;111883;1192;138437;-78
2021/10/19 04:52:01;;;;;;;0.40;0.40;;;;;;;10.28;73.10;101263.77;112090;1192;95523;-76
2021/10/19 04:54:28;;;;;;;0.40;0.30;;;;;;;10.25;73.25;101263.09;111833;1193;138553;-80
2021/10/19 04:56:56;;;;;;;0.40;0.40;;;;;;;10.17;73.61;101266.38;112350;1192;108807;-77
2021/10/19 04:59:24;;;;;;;0.40;0.40;;;;;;;10.14;73.77;101267.10;111941;1193;94891;-78
2021/10/19 05:01:52;;;;;;;0.40;0.40;;;;;;;10.14;73.85;101271.20;112070;1192;138875;-78
2021/10/19 05:04:20;;;;;;;0.40;0.40;;;;;;;10.24;73.83;101273.58;111878;1193;107493;-78
2021/10/19 05:06:47;;;;;;;0.40;0.40;;;;;;;10.25;73.70;101272.86;111656;1192;139009;-79
2021/10/19 05:09:15;;;;;;;0.40;0.30;;;;;;;10.19;73.86;101270.78;112094;1192;95484;-78
2021/10/19 05:11:43;;;;;;;0.40;0.40;;;;;;;10.20;73.91;101272.36;111657;1193;94866;-77
2021/10/19 05:14:11;;;;;;;0.50;0.40;;;;;;;10.20;74.08;101276.80;111560;1193;139143;-77
2021/10/19 05:16:40;;;;;;;0.40;0.30;;;;;;;10.31;74.09;101279.19;112007;1192;108462;-77
2021/10/19 05:19:08;;;;;;;0.50;0.40;;;;;;;10.46;73.67;101284.91;111784;1193;140125;-78
2021/10/19 05:21:36;;;;;;;0.50;0.40;;;;;;;10.42;73.44;101284.59;111866;1192;95344;-77
2021/10/19 05:24:04;;;;;;;0.40;0.40;;;;;;;10.43;73.46;101282.63;111772;1193;109120;-77
2021/10/19 05:26:32;;;;;;;0.40;0.40;;;;;;;10.41;73.55;101284.23;111849;1192;138563;-78
2021/10/19 05:29:00;;;;;;;0.40;0.40;;;;;;;10.46;73.55;101285.42;111936;1192;94904;-77
2021/10/19 05:31:27;;;;;;;0.40;0.30;;;;;;;10.50;73.44;101285.20;111852;1192;137515;-77
2021/10/19 05:33:56;;;;;;;0.40;0.30;;;;;;;10.51;73.48;101284.14;111992;1193;106528;-78
2021/10/19 05:36:23;;;;;;;0.40;0.30;;;;;;;10.49;73.49;101288.25;111930;1192;139061;-77
2021/10/19 05:38:51;;;;;;;0.40;0.30;;;;;;;10.51;73.61;101292.11;113400;1192;95414;-78
2021/10/19 05:41:19;;;;;;;0.40;0.30;;;;;;;10.56;73.33;101289.41;112270;1191;94863;-77
2021/10/19 05:43:47;;;;;;;0.40;0.30;;;;;;;10.50;73.57;101288.41;111624;1192;137912;-77
2021/10/19 05:46:16;;;;;;;0.40;0.40;;;;;;;10.51;73.70;101285.71;111856;1192;108463;-78
2021/10/19 05:48:44;;;;;;;0.50;0.40;;;;;;;10.44;73.71;101286.69;111834;1193;138321;-76
2021/10/19 05:51:12;;;;;;;0.40;0.40;;;;;;;10.45;73.99;101292.00;111839;1193;94920;-78
2021/10/19 05:53:40;;;;;;;0.40;0.30;;;;;;;10.57;73.86;101291.17;111930;1193;108606;-78
2021/10/19 05:56:07;;;;;;;0.40;0.40;;;;;;;10.65;73.64;101289.11;111538;1193;138850;-78
2021/10/19 05:58:35;;;;;;;0.40;0.30;;;;;;;10.64;73.57;101288.59;112106;1192;95420;-77
2021/10/19 06:01:03;;;;;;;0.40;0.30;;;;;;;10.63;73.61;101286.13;111967;1192;139299;-78
2021/10/19 06:03:31;;;;;;;0.40;0.30;;;;;;;10.60;73.52;101283.14;112169;1192;107892;-77
2021/10/19 06:05:59;;;;;;;0.40;0.30;;;;;;;10.54;73.83;101278.40;112005;1193;108323;-77
2021/10/19 06:08:27;;;;;;;0.40;0.30;;;;;;;10.56;73.98;101274.13;111581;1193;137596;-77
2021/10/19 06:10:56;;;;;;;0.40;0.40;;;;;;;10.59;73.97;101271.62;111815;1193;94867;-78
2021/10/19 06:13:24;;;;;;;0.40;0.40;;;;;;;10.63;73.85;101277.07;112011;1192;138965;-77
2021/10/19 06:15:54;;;;;;;0.40;0.30;;;;;;;10.57;73.86;101277.84;112144;1193;109492;-77
2021/10/19 06:18:24;;;;;;;0.40;0.30;;;;;;;10.58;73.89;101277.48;111947;1192;138993;-79
2021/10/19 06:20:52;;;;;;;0.40;0.30;;;;;;;10.51;74.14;101282.18;112669;1192;95846;-77
2021/10/19 06:23:20;;;;;;;0.40;0.30;;;;;;;10.52;74.41;101281.45;111989;1192;107527;-76
2021/10/19 06:25:49;;;;;;;0.40;0.30;;;;;;;10.56;74.24;101285.69;111566;1193;139108;-76
2021/10/19 06:28:16;;;;;;;0.40;0.30;;;;;;;10.58;74.21;101290.80;111746;1193;95092;-75
2021/10/19 06:30:44;;;;;;;0.40;0.30;;;;;;;10.65;74.15;101288.23;111908;1192;138573;-77
2021/10/19 06:33:12;;;;;;;0.40;0.30;;;;;;;10.75;74.14;101293.08;111857;1193;106510;-77
2021/10/19 06:35:41;;;;;;;0.40;0.30;;;;;;;10.83;73.97;101293.33;111500;1193;108985;-76
2021/10/19 06:38:09;;;;;;;0.40;0.30;;;;;;;10.89;73.60;101289.88;111893;1193;139136;-77
2021/10/19 06:40:37;;;;;;;0.40;0.30;;;;;;;10.86;73.75;101293.30;111709;1193;95033;-77
2021/10/19 06:43:05;;;;;;;0.40;0.40;;;;;;;10.99;73.81;101294.17;111972;1193;138732;-78
2021/10/19 06:45:33;;;;;;;0.40;0.30;;;;;;;10.98;73.23;101294.39;111962;1193;109618;-77
2021/10/19 06:48:01;;;;;;;0.40;0.30;;;;;;;10.86;73.74;101294.35;111866;1193;94901;-77
2021/10/19 06:50:29;;;;;;;0.40;0.30;;;;;;;10.82;73.94;101295.47;111744;1193;138620;-76
2021/10/19 06:52:56;;;;;;;0.40;0.30;;;;;;;10.81;73.98;101296.55;111950;1193;107503;-76
2021/10/19 06:55:24;;;;;;;0.40;0.30;;;;;;;10.85;74.07;101297.76;111302;1195;137796;-77
2021/10/19 06:57:52;;;;;;;0.40;0.30;;;;;;;10.92;74.06;101298.71;115100;1192;93935;-78
2021/10/19 07:00:20;;;;;;;0.40;0.30;;;;;;;11.02;73.92;101295.73;112410;1193;138196;-77
2021/10/19 07:02:48;;;;;;;0.40;0.40;;;;;;;11.02;73.64;101292.55;111895;1192;109317;-77
2021/10/19 07:05:16;;;;;;;0.40;0.30;;;;;;;11.00;73.77;101290.97;111532;1192;108572;-77
2021/10/19 07:07:44;;;;;;;0.40;0.30;;;;;;;10.95;73.89;101287.67;111591;1192;137987;-77
2021/10/19 07:10:13;;;;;;;0.40;0.30;;;;;;;10.93;74.01;101293.02;111590;1193;95047;-78
2021/10/19 07:12:41;;;;;;;0.40;0.30;;;;;;;10.94;74.17;101292.12;111503;1192;138414;-77
2021/10/19 07:15:10;;;;;;;0.40;0.30;;;;;;;11.02;74.20;101290.41;111663;1192;109908;-78
2021/10/19 07:17:38;;;;;;;0.40;0.30;;;;;;;11.09;74.07;101283.55;111643;1192;96430;-81
2021/10/19 07:20:08;;;;;;;0.50;0.40;;;;;;;11.11;74.00;101288.33;111412;1193;138242;-77
2021/10/19 07:22:36;;;;;;;0.40;0.30;;;;;;;11.16;74.08;101283.28;111475;1193;107644;-77
2021/10/19 07:25:05;;;;;;;0.40;0.30;;;;;;;11.25;74.16;101279.08;111325;1193;139673;-77
2021/10/19 07:27:38;;;;;;;0.40;0.30;;;;;;;11.33;73.88;101277.70;111547;1193;95373;-77
2021/10/19 07:30:06;;;;;;;0.40;0.30;;;;;;;11.37;73.85;101279.41;111477;1192;95364;-77
2021/10/19 07:32:34;;;;;;;0.40;0.30;;;;;;;11.41;73.61;101270.65;111479;1192;138171;-77
2021/10/19 07:35:02;;;;;;;0.40;0.30;;;;;;;11.41;73.73;101264.97;111571;1193;109003;-78
2021/10/19 07:37:38;;;;;;;0.40;0.30;;;;;;;11.45;73.87;101267.20;111471;1192;139360;-76
2021/10/19 07:40:07;;;;;;;0.40;0.20;;;;;;;11.44;73.93;101266.68;111815;1192;94927;-79
2021/10/19 07:42:37;;;;;;;0.40;0.30;;;;;;;11.41;74.14;101267.98;114343;1193;138845;-77
2021/10/19 07:45:10;;;;;;;0.40;0.30;;;;;;;11.47;74.15;101269.66;112366;1193;109739;-77
2021/10/19 07:47:39;;;;;;;0.40;0.30;;;;;;;11.51;74.17;101269.59;112394;1193;95317;-79
2021/10/19 07:50:09;;;;;;;0.40;0.30;;;;;;;11.61;74.08;101272.27;111580;1193;138309;-77
2021/10/19 07:52:37;;;;;;;0.40;0.30;;;;;;;11.76;73.97;101273.27;113523;1193;107968;-78
2021/10/19 07:55:06;;;;;;;0.40;0.30;;;;;;;11.84;73.82;101268.14;111167;1193;138228;-78
2021/10/19 07:57:50;;;;;;;0.40;0.30;;;;;;;11.91;73.34;101268.92;111457;1194;95135;-79
2021/10/19 08:00:36;;;;;;;0.40;0.40;;;;;;;11.94;73.54;101270.13;111280;1195;139435;-78
2021/10/19 08:03:05;;;;;;;0.40;0.30;;;;;;;12.12;73.75;101273.38;111498;1193;107550;-77
2021/10/19 08:05:33;;;;;;;0.40;0.40;;;;;;;12.25;73.46;101273.31;111577;1193;108522;-78
2021/10/19 08:08:08;;;;;;;0.40;0.40;;;;;;;12.23;72.92;101275.83;111742;1192;140559;-78
2021/10/19 08:10:39;;;;;;;0.40;0.30;;;;;;;12.26;73.28;101274.88;111895;1193;94921;-77
2021/10/19 08:13:09;;;;;;;0.40;0.30;;;;;;;12.32;72.88;101273.00;111590;1193;138487;-78
2021/10/19 08:15:38;;;;;;;0.40;0.30;;;;;;;12.32;73.15;101276.57;111367;1196;138789;-78
2021/10/19 08:18:07;;;;;;;0.40;0.30;;;;;;;12.24;72.76;101274.23;111538;1193;95515;-78
2021/10/19 08:20:35;;;;;;;0.40;0.30;;;;;;;12.22;73.12;101269.64;111789;1193;94891;-79
2021/10/19 08:23:04;;;;;;;0.40;0.30;;;;;;;12.20;73.19;101271.44;111481;1193;138488;-79
2021/10/19 08:25:31;;;;;;;0.40;0.30;;;;;;;12.19;73.48;101273.59;111668;1193;108440;-79
2021/10/19 08:28:00;;;;;;;0.40;0.30;;;;;;;12.28;73.73;101276.98;111737;1193;139198;-79
2021/10/19 08:30:28;;;;;;;0.40;0.30;;;;;;;12.44;73.47;101278.65;111552;1193;94879;-78
2021/10/19 08:32:56;;;;;;;0.40;0.30;;;;;;;12.43;73.09;101275.45;111737;1193;108552;-78
2021/10/19 08:35:24;;;;;;;0.40;0.30;;;;;;;12.43;73.26;101279.38;111536;1196;138480;-79
2021/10/19 08:37:52;;;;;;;0.40;0.30;;;;;;;12.62;73.47;101279.16;112144;1192;94777;-78
2021/10/19 08:40:21;;;;;;;0.40;0.30;;;;;;;12.67;73.16;101273.70;112059;1192;136787;-78
2021/10/19 08:42:51;;;;;;;0.40;0.30;;;;;;;12.69;73.51;101268.69;112010;1193;107476;-77
2021/10/19 08:45:21;;;;;;;0.40;0.20;;;;;;;12.71;73.20;101269.17;112021;1193;109117;-78
2021/10/19 08:47:50;;;;;;;0.40;0.20;;;;;;;12.79;73.21;101277.40;111748;1192;138569;-78
2021/10/19 08:50:21;;;;;;;0.40;0.30;;;;;;;12.95;73.45;101278.13;113327;1192;94867;-80
2021/10/19 08:52:50;;;;;;;0.40;0.30;;;;;;;13.11;72.83;101275.61;111533;1193;137867;-78
2021/10/19 08:55:19;;;;;;;0.40;0.20;;;;;;;13.24;72.12;101282.27;111719;1196;108511;-79
2021/10/19 08:57:47;;;;;;;0.40;0.20;;;;;;;13.24;71.79;101278.35;111632;1192;140115;-81
2021/10/19 09:00:15;;;;;;;0.40;0.30;;;;;;;13.23;72.20;101274.09;111798;1192;95815;-79
2021/10/19 09:02:45;;;;;;;0.40;0.30;;;;;;;13.24;72.15;101276.20;111669;1195;107504;-78
2021/10/19 09:05:21;;;;;;;0.40;0.30;;;;;;;13.26;72.23;101273.69;111827;1193;139080;-77
2021/10/19 09:08:00;;;;;;;0.40;0.30;;;;;;;13.21;72.04;101268.78;113152;1193;95135;-78
2021/10/19 09:10:39;;;;;;;0.40;0.20;;;;;;;13.23;72.53;101266.95;111640;1192;137676;-78
2021/10/19 09:13:11;;;;;;;0.40;0.30;;;;;;;13.32;72.73;101268.35;115323;1191;108135;-80
2021/10/19 09:15:43;;;;;;;0.40;0.20;;;;;;;13.45;71.76;101263.80;112805;1191;137449;-79
2021/10/19 09:18:17;;;;;;;0.40;0.20;;;;;;;13.61;71.48;101265.73;111942;1193;95012;-78
2021/10/19 09:20:54;;;;;;;0.40;0.20;;;;;;;13.79;71.09;101269.92;112053;1193;95086;-79
2021/10/19 09:23:24;;;;;;;0.40;0.20;;;;;;;13.85;71.18;101275.65;111914;1193;138112;-78
2021/10/19 09:25:55;;;;;;;0.40;0.20;;;;;;;13.99;71.57;101275.84;112820;1194;108164;-77
2021/10/19 09:28:39;;;;;;;0.40;0.20;;;;;;;14.12;71.23;101273.50;112149;1192;138995;-77
2021/10/19 09:31:07;;;;;;;0.40;0.20;;;;;;;14.25;70.66;101267.61;112088;1192;94949;-77
2021/10/19 09:33:35;;;;;;;0.40;0.20;;;;;;;14.57;70.62;101264.58;113535;1193;108576;-77
2021/10/19 09:36:03;;;;;;;0.40;0.10;;;;;;;15.03;69.08;101259.84;111819;1192;138554;-78
2021/10/19 09:38:31;;;;;;;0.40;0.20;;;;;;;15.23;68.89;101261.36;111782;1192;94995;-77
2021/10/19 09:41:00;;;;;;;0.40;0.20;;;;;;;15.26;68.22;101254.63;111586;1193;137954;-75
2021/10/19 09:43:32;;;;;;;0.40;0.20;;;;;;;15.10;67.63;101253.01;111695;1193;107480;-76
2021/10/19 09:46:06;;;;;;;0.40;0.20;;;;;;;14.96;68.33;101244.50;111623;1192;139006;-78
2021/10/19 09:48:35;;;;;;;0.40;0.20;;;;;;;15.02;67.92;101238.75;112001;1192;94850;-78
2021/10/19 09:51:03;;;;;;;0.40;0.20;;;;;;;14.92;67.86;101237.64;111949;1192;95411;-77
2021/10/19 09:53:35;;;;;;;0.40;0.20;;;;;;;14.92;68.50;101234.42;111993;1192;137872;-77
2021/10/19 09:56:03;;;;;;;0.40;0.20;;;;;;;15.00;68.75;101232.75;111904;1193;108439;-77
2021/10/19 09:58:31;;;;;;;0.40;0.20;;;;;;;15.06;68.19;101231.31;111693;1193;138231;-77
2021/10/19 10:00:59;;;;;;;0.40;0.20;;;;;;;14.98;68.07;101230.65;111862;1192;95192;-76
2021/10/19 10:03:27;;;;;;;0.40;0.20;;;;;;;15.02;68.09;101222.48;111606;1193;107131;-77
2021/10/19 10:05:56;;;;;;;0.40;0.20;;;;;;;15.26;67.58;101218.70;111802;1193;139090;-80
2021/10/19 10:08:25;;;;;;;0.40;0.20;;;;;;;15.47;66.89;101219.97;112042;1193;95319;-77
2021/10/19 10:10:55;;;;;;;0.40;0.20;;;;;;;15.79;66.89;101215.84;111794;1193;138521;-76
2021/10/19 10:13:24;;;;;;;0.40;0.20;;;;;;;15.90;65.80;101217.98;111691;1193;107522;-78
2021/10/19 10:15:53;;;;;;;0.40;0.20;;;;;;;16.09;65.97;101218.92;111922;1191;139048;-77
2021/10/19 10:18:32;;;;;;;0.40;0.10;;;;;;;16.52;64.49;101214.30;111993;1192;94961;-78
2021/10/19 10:21:14;;;;;;;0.40;0.10;;;;;;;16.67;63.44;101211.38;111867;1193;95348;-80
2021/10/19 10:23:43;;;;;;;0.40;0.10;;;;;;;16.61;64.16;101207.14;111823;1193;137477;-77
2021/10/19 10:26:40;;;;;;;0.40;0.20;;;;;;;16.41;64.15;101206.27;111986;1193;108468;-77
2021/10/19 10:29:13;;;;;;;0.40;0.10;;;;;;;16.13;65.18;101205.35;111614;1193;138173;-78
2021/10/19 10:31:48;;;;;;;0.40;0.20;;;;;;;16.01;65.27;101205.05;111720;1193;95421;-79
2021/10/19 10:34:27;;;;;;;0.40;0.10;;;;;;;15.99;66.24;101204.40;111910;1192;138104;-77
2021/10/19 10:37:11;;;;;;;0.40;0.10;;;;;;;16.09;65.58;101196.90;111618;1193;107993;-76
2021/10/19 10:39:45;;;;;;;0.40;0.20;;;;;;;16.14;65.99;101189.73;111907;1193;94777;-76
2021/10/19 10:42:15;;;;;;;0.40;0.20;;;;;;;16.09;65.85;101185.23;111885;1193;137625;-77
2021/10/19 10:44:43;;;;;;;0.40;0.20;;;;;;;15.93;65.89;101182.24;111696;1192;107318;-77
2021/10/19 10:47:11;;;;;;;0.40;0.20;;;;;;;15.85;66.56;101179.46;112044;1193;139054;-79
2021/10/19 10:49:39;;;;;;;0.40;0.20;;;;;;;15.84;66.05;101179.31;112074;1193;95832;-82
2021/10/19 10:52:15;;;;;;;0.40;0.20;;;;;;;15.93;66.59;101180.10;111942;1193;137438;-78
2021/10/19 10:54:51;;;;;;;0.40;0.20;;;;;;;15.85;65.28;101173.39;114957;1192;107463;-78
2021/10/19 10:57:19;;;;;;;0.40;0.20;;;;;;;15.79;65.64;101172.69;114207;1192;109028;-77
2021/10/19 10:59:56;;;;;;;0.40;0.20;;;;;;;15.80;65.64;101177.86;111680;1192;138647;-78
2021/10/19 11:02:25;;;;;;;0.40;0.20;;;;;;;15.73;65.27;101176.64;111834;1192;95975;-76
2021/10/19 11:04:55;;;;;;;0.40;0.20;;;;;;;15.65;65.40;101173.88;115051;1192;137395;-77
2021/10/19 11:07:29;;;;;;;0.40;0.20;;;;;;;15.59;66.34;101170.70;115198;1191;108625;-77
2021/10/19 11:10:05;;;;;;;0.40;0.20;;;;;;;15.68;66.50;101170.20;114384;1192;139094;-77
2021/10/19 11:12:34;;;;;;;0.40;0.20;;;;;;;15.87;65.21;101168.30;111690;1193;94941;-76
2021/10/19 11:15:17;;;;;;;0.40;0.20;;;;;;;16.01;64.62;101167.08;111671;1193;108194;-77
2021/10/19 11:17:48;;;;;;;0.40;0.10;;;;;;;16.19;65.55;101168.21;113540;1192;137629;-77
2021/10/19 11:20:18;;;;;;;0.40;0.20;;;;;;;16.20;63.61;101169.61;111912;1193;95379;-78